Airfield :
LOGIN :

Register | Disclaimer

   EN    FR    IT 

 










Legend :    VFR   Marginal VFR   IFR   Intensive IFR   Very Intensive IFR
Visi :
Ceiling :
>= 8 km
>= 3000ft
5 to 8 km
1000 to 3000 ft
1500m to 5 km
500 to 1000 ft
800 to 1500m
200 to 500 ft
< 800m
< 200 ft
Symbols :   Thunderstorms  Fog  Heavy snow  Heavy precipitations  Wind > 20 kt
SIGMETs :     Misc.  Thunderstorms  Icing  Turbulence  Mountain Waves  Volcanic Ashes






- Airport Elevation : 13 ft
- IATA code : CAG


LIEE - Cagliari Elmas

CURRENT METAR :
  • 131150Z 27012KT 250V310 9999 SCT045 SCT055 18/08 Q1005

EXPIRED METARs :
  • 131120Z 28011KT 9999 SCT040 18/07 Q1005
  • 131050Z 30009KT 9999 SCT040 19/09 Q1005
  • 131020Z 29011KT 9999 SCT040 17/08 Q1005
  • 130950Z 31007KT 280V340 9999 SCT040 18/09 Q1005
  • 130920Z 31006KT 260V340 9999 SCT050 17/09 Q1005

TAF TAF LIEE
Valid from the 13 at 12:00 until the 14 at 12:00 UTC


131100Z 1312/1412 30013KT 9999 SCT025
BECMG 1313/1315 22010KT
TEMPO 1315/1318 SHRA
TEMPO 1318/1324 4000 TSRA
BECMG 1400/1402 33016KT



MET'MAP, your aeronautical weather chart ! - Copyright ORBIFLY December 2007 - Disclaimer

ORBIFLY MET'MAP TEAM :

Programming & Development : Alexandra Zaïnal
Concept & Development : Baudouin d'Aumeries
Co-Development & Prog : Marc-Olivier Méhu
Technical & hardware support : Manuel Goepfert

Contact : metmap@orbifly.com




SOURCES & CREDITS :

   NOAA